createdAt,value
2018-01-28T00:02:48.613Z,95.00
2018-01-28T00:07:32.964Z,94.40
2018-01-28T00:12:16.293Z,94.30
2018-01-28T00:16:59.729Z,93.70
2018-01-28T00:21:43.018Z,94.00
2018-01-28T00:26:26.384Z,94.30
2018-01-28T00:31:09.748Z,93.60
2018-01-28T00:35:53.069Z,94.40
2018-01-28T00:40:36.427Z,94.20
2018-01-28T00:45:19.763Z,93.50
2018-01-28T00:50:03.041Z,94.20
2018-01-28T00:54:46.653Z,94.20
2018-01-28T00:59:29.973Z,94.30
2018-01-28T01:04:13.334Z,94.40
2018-01-28T01:08:56.637Z,94.70
2018-01-28T01:13:39.986Z,95.10
2018-01-28T01:18:23.710Z,94.70
2018-01-28T01:23:06.987Z,94.80
2018-01-28T01:27:50.338Z,95.00
2018-01-28T01:32:33.683Z,95.20
2018-01-28T01:37:16.975Z,95.30
2018-01-28T01:42:01.054Z,95.50
2018-01-28T01:46:44.719Z,95.50
2018-01-28T01:51:28.002Z,95.50
2018-01-28T01:56:11.343Z,95.30
2018-01-28T02:00:55.495Z,95.50
2018-01-28T02:05:38.795Z,95.40
2018-01-28T02:10:22.140Z,95.60
2018-01-28T02:15:05.503Z,95.60
2018-01-28T02:19:48.830Z,95.70
2018-01-28T02:24:32.180Z,95.50
2018-01-28T02:29:15.514Z,95.30
2018-01-28T02:33:58.823Z,95.30
2018-01-28T02:38:42.182Z,95.10
2018-01-28T02:43:25.505Z,95.20
2018-01-28T02:48:08.816Z,94.40
2018-01-28T02:52:52.123Z,94.20
2018-01-28T02:57:35.484Z,93.60
2018-01-28T03:02:18.846Z,92.90
2018-01-28T03:07:02.164Z,92.90
2018-01-28T03:11:45.502Z,92.80
2018-01-28T03:16:29.092Z,92.60
2018-01-28T03:21:12.400Z,91.70
2018-01-28T03:25:55.737Z,91.80
2018-01-28T03:30:39.131Z,91.00
2018-01-28T03:35:22.449Z,91.10
2018-01-28T03:40:06.095Z,90.90
2018-01-28T03:44:49.403Z,90.80
2018-01-28T03:49:33.446Z,90.80
2018-01-28T03:54:16.782Z,90.80
2018-01-28T03:59:00.114Z,89.60
2018-01-28T04:03:43.482Z,89.60
2018-01-28T04:08:27.626Z,87.60
2018-01-28T04:13:10.955Z,87.60
2018-01-28T04:17:54.305Z,86.60
2018-01-28T04:22:37.664Z,85.90
2018-01-28T04:27:21.787Z,85.10
2018-01-28T04:32:05.386Z,85.20
2018-01-28T04:36:48.762Z,85.80
2018-01-28T04:41:32.050Z,87.10
2018-01-28T04:46:16.154Z,85.00
2018-01-28T04:50:59.443Z,84.90
2018-01-28T04:55:43.589Z,86.40
2018-01-28T05:00:27.702Z,86.60
2018-01-28T05:05:11.036Z,86.60
2018-01-28T05:09:54.350Z,88.70
2018-01-28T05:14:38.770Z,89.80
2018-01-28T05:19:22.103Z,89.80
2018-01-28T05:24:05.765Z,90.50
2018-01-28T05:28:49.117Z,90.90
2018-01-28T05:33:33.296Z,91.50
2018-01-28T05:38:17.719Z,92.40
2018-01-28T05:43:01.060Z,92.00
2018-01-28T05:47:44.396Z,92.40
2018-01-28T05:52:27.726Z,92.50
2018-01-28T05:57:11.055Z,92.80
2018-01-28T06:01:54.415Z,93.50
2018-01-28T06:06:37.860Z,93.90
2018-01-28T06:11:21.231Z,94.40
2018-01-28T06:16:04.712Z,94.50
2018-01-28T06:20:48.010Z,94.90
2018-01-28T06:25:31.370Z,95.20
2018-01-28T06:30:14.738Z,95.30
2018-01-28T06:34:58.132Z,96.00
2018-01-28T06:39:42.514Z,96.60
2018-01-28T06:44:25.844Z,96.60
2018-01-28T06:49:09.965Z,97.20
2018-01-28T06:53:53.311Z,97.10
2018-01-28T06:58:36.648Z,96.90
2018-01-28T07:03:20.181Z,96.90
2018-01-28T07:08:03.465Z,97.00
2018-01-28T07:12:46.832Z,97.20
2018-01-28T07:17:30.922Z,97.40
2018-01-28T07:22:14.247Z,97.40
2018-01-28T07:26:57.559Z,97.70
2018-01-28T07:31:41.920Z,99.60
2018-01-28T07:36:25.237Z,99.60
2018-01-28T07:41:08.588Z,99.70
2018-01-28T07:45:51.967Z,99.20
2018-01-28T07:50:35.286Z,99.20
2018-01-28T07:55:19.385Z,99.90
2018-01-28T08:00:02.700Z,99.90
2018-01-28T08:04:46.333Z,99.90
2018-01-28T08:09:29.654Z,99.90
2018-01-28T08:14:15.600Z,99.90
2018-01-28T08:18:59.071Z,99.90
2018-01-28T08:23:45.615Z,99.90
2018-01-28T08:28:51.701Z,99.90
2018-01-28T08:33:39.006Z,99.50
2018-01-28T08:38:27.751Z,99.30
2018-01-28T08:43:14.117Z,99.20
2018-01-28T08:47:57.638Z,98.70
2018-01-28T08:52:41.051Z,98.00
2018-01-28T08:57:24.667Z,97.70
2018-01-28T09:02:09.689Z,96.90
2018-01-28T09:06:55.652Z,96.90
2018-01-28T09:11:39.518Z,96.80
2018-01-28T09:16:22.879Z,97.00
2018-01-28T09:21:06.282Z,96.60
2018-01-28T09:25:50.350Z,96.30
2018-01-28T09:30:33.721Z,96.20
2018-01-28T09:35:17.287Z,96.60
2018-01-28T09:40:00.590Z,96.50
2018-01-28T09:44:43.966Z,96.40
2018-01-28T09:49:27.309Z,96.10
2018-01-28T09:54:10.724Z,96.30
2018-01-28T09:58:54.346Z,96.20
2018-01-28T10:03:38.055Z,95.70
2018-01-28T10:08:22.611Z,95.40
2018-01-28T10:13:06.167Z,95.80
2018-01-28T10:17:49.566Z,95.60
2018-01-28T10:22:32.907Z,95.50
2018-01-28T10:27:16.560Z,95.30
2018-01-28T10:31:59.860Z,95.10
2018-01-28T10:36:43.229Z,95.30
2018-01-28T10:41:26.613Z,95.20
2018-01-28T10:46:10.733Z,94.80
2018-01-28T10:50:54.082Z,94.80
2018-01-28T10:55:37.447Z,95.10
2018-01-28T11:00:21.861Z,94.20
2018-01-28T11:05:05.318Z,94.20
2018-01-28T11:09:48.642Z,94.30
2018-01-28T11:14:31.992Z,94.30
2018-01-28T11:19:16.338Z,94.20
2018-01-28T11:23:59.988Z,94.30
2018-01-28T11:28:44.077Z,94.00
2018-01-28T11:33:27.423Z,94.00
2018-01-28T11:38:11.613Z,94.20
2018-01-28T11:42:54.910Z,94.20
2018-01-28T11:47:38.340Z,93.70
2018-01-28T11:52:21.739Z,93.50
2018-01-28T11:57:05.088Z,93.60
2018-01-28T12:01:49.500Z,92.40
2018-01-28T12:06:32.860Z,92.40
2018-01-28T12:11:16.514Z,93.30
2018-01-28T12:15:59.920Z,93.10
2018-01-28T12:20:43.308Z,92.80
2018-01-28T12:25:26.902Z,93.50
2018-01-28T12:30:10.219Z,93.70
2018-01-28T12:34:53.614Z,93.60
2018-01-28T12:39:36.941Z,94.00
2018-01-28T12:44:20.306Z,94.40
2018-01-28T12:49:03.660Z,94.00
2018-01-28T12:53:48.339Z,93.90
2018-01-28T12:58:31.998Z,93.80
2018-01-28T13:03:15.384Z,94.00
2018-01-28T13:07:58.687Z,94.20
2018-01-28T13:12:42.074Z,94.30
2018-01-28T13:17:25.751Z,94.40
2018-01-28T13:22:09.094Z,94.40
2018-01-28T13:26:52.481Z,94.40
2018-01-28T13:31:35.825Z,94.40
2018-01-28T13:36:19.410Z,94.20
2018-01-28T13:41:03.200Z,94.70
2018-01-28T13:45:46.598Z,94.60
2018-01-28T13:50:29.968Z,94.60
2018-01-28T13:55:13.250Z,94.70
2018-01-28T13:59:56.614Z,94.40
2018-01-28T14:04:39.968Z,94.10
2018-01-28T14:09:23.395Z,94.30
2018-01-28T14:14:07.065Z,94.20
2018-01-28T14:18:51.174Z,94.50
2018-01-28T14:23:34.541Z,94.50
2018-01-28T14:28:17.900Z,94.70
2018-01-28T14:33:02.189Z,94.90
2018-01-28T14:37:45.495Z,95.00
2018-01-28T14:42:29.759Z,95.20
2018-01-28T14:47:13.093Z,95.20
2018-01-28T14:51:56.419Z,95.20
2018-01-28T14:56:39.731Z,95.40
2018-01-28T15:01:23.103Z,95.30
2018-01-28T15:06:06.547Z,95.50
2018-01-28T15:10:49.895Z,95.40
2018-01-28T15:15:33.334Z,95.70
2018-01-28T15:20:16.761Z,95.70
2018-01-28T15:25:00.137Z,95.70
2018-01-28T15:29:43.470Z,95.80
2018-01-28T15:34:26.883Z,95.70
2018-01-28T15:39:10.554Z,96.00
2018-01-28T15:43:53.847Z,96.00
2018-01-28T15:48:37.183Z,95.90
2018-01-28T15:53:21.059Z,95.90
2018-01-28T15:58:04.487Z,96.00
2018-01-28T16:02:47.850Z,96.10
2018-01-28T16:07:31.201Z,95.80
2018-01-28T16:12:14.736Z,95.90
2018-01-28T16:16:58.108Z,96.20
2018-01-28T16:21:42.308Z,96.40
2018-01-28T16:26:25.666Z,96.40
2018-01-28T16:31:09.092Z,96.60
2018-01-28T16:40:42.899Z,96.40
2018-01-28T16:45:26.227Z,96.40
2018-01-28T16:50:10.533Z,96.50
2018-01-28T16:54:53.892Z,96.60
2018-01-28T16:59:37.232Z,96.90
2018-01-28T17:04:20.545Z,96.80
2018-01-28T17:09:03.883Z,96.70
2018-01-28T17:13:47.944Z,96.60
2018-01-28T17:18:32.068Z,96.60
2018-01-28T17:23:15.429Z,96.60
2018-01-28T17:27:59.597Z,96.50
2018-01-28T17:32:43.272Z,96.50
2018-01-28T17:37:26.615Z,96.30
2018-01-28T17:42:09.952Z,96.00
2018-01-28T17:46:53.285Z,96.40
2018-01-28T17:51:36.640Z,96.20
2018-01-28T17:56:19.975Z,96.10
2018-01-28T18:01:04.182Z,96.00
2018-01-28T18:05:47.496Z,96.00
2018-01-28T18:10:30.841Z,96.10
2018-01-28T18:15:14.179Z,95.90
2018-01-28T18:19:57.609Z,96.00
2018-01-28T18:24:40.989Z,96.00
2018-01-28T18:29:24.346Z,96.00
2018-01-28T18:34:07.715Z,95.90
2018-01-28T18:38:51.078Z,95.70
2018-01-28T18:43:35.040Z,95.50
2018-01-28T18:48:18.463Z,95.30
2018-01-28T18:53:01.886Z,95.30
2018-01-28T18:57:45.208Z,95.20
2018-01-28T19:02:28.588Z,95.10
2018-01-28T19:07:11.904Z,95.00
2018-01-28T19:11:56.001Z,94.60
2018-01-28T19:16:40.234Z,94.60
2018-01-28T19:21:23.638Z,94.50
2018-01-28T19:26:07.866Z,93.90
2018-01-28T19:30:51.147Z,93.90
2018-01-28T19:35:36.096Z,93.40
2018-01-28T19:40:19.841Z,93.40
2018-01-28T19:45:03.159Z,93.30
2018-01-28T19:49:46.504Z,93.10
2018-01-28T19:54:30.145Z,93.30
2018-01-28T19:59:13.450Z,93.00
2018-01-28T20:03:57.585Z,93.00
2018-01-28T20:08:40.942Z,93.00
2018-01-28T20:13:24.359Z,93.20
2018-01-28T20:18:07.691Z,93.20
2018-01-28T20:22:51.059Z,93.60
2018-01-28T20:27:34.363Z,93.30
2018-01-28T20:32:17.726Z,93.50
2018-01-28T20:37:01.079Z,93.70
2018-01-28T20:41:45.271Z,93.80
2018-01-28T20:46:29.413Z,94.10
2018-01-28T20:51:13.512Z,94.30
2018-01-28T20:55:56.838Z,94.30
2018-01-28T21:00:40.156Z,94.30
2018-01-28T21:05:23.441Z,94.50
2018-01-28T21:10:06.788Z,94.30
2018-01-28T21:14:50.193Z,94.40
2018-01-28T21:19:34.418Z,94.50
2018-01-28T21:24:17.800Z,94.40
2018-01-28T21:29:01.078Z,94.50
2018-01-28T21:33:44.478Z,94.40
2018-01-28T21:38:27.833Z,94.60
2018-01-28T21:43:11.257Z,94.60
2018-01-28T21:47:55.287Z,94.60
2018-01-28T21:52:39.375Z,94.70
2018-01-28T21:57:22.732Z,94.70
2018-01-28T22:02:06.099Z,94.90
2018-01-28T22:06:49.487Z,94.90
2018-01-28T22:11:32.799Z,94.70
2018-01-28T22:16:16.899Z,94.80
2018-01-28T22:21:00.262Z,94.80
2018-01-28T22:25:43.530Z,94.90
2018-01-28T22:30:27.751Z,95.00
2018-01-28T22:35:11.094Z,95.00
2018-01-28T22:39:54.403Z,95.30
2018-01-28T22:44:37.729Z,95.30
2018-01-28T22:49:21.098Z,95.40
2018-01-28T22:54:04.398Z,95.40
2018-01-28T22:58:48.491Z,95.70
2018-01-28T23:03:31.797Z,95.70
2018-01-28T23:08:15.885Z,95.80
2018-01-28T23:12:59.238Z,95.80
2018-01-28T23:17:42.532Z,95.90
2018-01-28T23:22:25.845Z,96.00
2018-01-28T23:27:09.182Z,96.20
2018-01-28T23:31:52.567Z,96.20
2018-01-28T23:36:35.943Z,96.40
2018-01-28T23:41:20.607Z,96.70
2018-01-28T23:46:03.975Z,96.70
2018-01-28T23:50:47.297Z,96.70
2018-01-28T23:55:30.651Z,96.80
